createdAt,value
2018-03-20T00:00:24.375Z,0.0
2018-03-20T00:11:21.161Z,0.0
2018-03-20T00:21:50.670Z,0.0
2018-03-20T00:32:17.506Z,0.0
2018-03-20T00:53:18.261Z,0.0
2018-03-20T01:03:32.875Z,0.0
2018-03-20T01:13:46.990Z,0.0
2018-03-20T01:24:01.293Z,0.0
2018-03-20T01:34:46.439Z,0.0
2018-03-20T01:45:03.336Z,0.0
2018-03-20T01:55:15.592Z,0.0
2018-03-20T02:05:29.910Z,0.0
2018-03-20T02:16:15.309Z,0.0
2018-03-20T02:26:38.976Z,0.0
2018-03-20T02:36:53.060Z,0.0
2018-03-20T02:47:38.740Z,0.0
2018-03-20T02:58:24.496Z,0.0
2018-03-20T03:08:36.547Z,0.0
2018-03-20T03:18:49.329Z,0.0
2018-03-20T03:29:01.993Z,0.0
2018-03-20T03:39:13.632Z,0.0
2018-03-20T03:49:25.099Z,0.0
2018-03-20T03:59:53.199Z,0.0
2018-03-20T04:10:06.919Z,0.0
2018-03-20T04:20:20.511Z,0.0
2018-03-20T04:30:34.814Z,0.0
2018-03-20T04:41:19.706Z,0.0
2018-03-20T04:51:31.904Z,0.0
2018-03-20T05:01:45.467Z,0.0
2018-03-20T05:12:02.795Z,4.0
2018-03-20T05:22:17.188Z,16.0
2018-03-20T05:32:37.768Z,56.0
2018-03-20T05:42:51.448Z,244.0
2018-03-20T05:53:05.786Z,540.0
2018-03-20T06:03:17.387Z,624.0
2018-03-20T06:13:36.620Z,1352.0
2018-03-20T06:23:57.115Z,1320.0
2018-03-20T06:34:10.637Z,2744.0
2018-03-20T06:44:24.931Z,3084.0
2018-03-20T06:54:49.379Z,3700.0
2018-03-20T07:05:12.511Z,4000.0
2018-03-20T07:15:26.441Z,6424.0
2018-03-20T07:25:39.896Z,9084.0
2018-03-20T07:36:25.655Z,22528.0
2018-03-20T07:47:11.017Z,28864.0
2018-03-20T07:57:56.015Z,32000.0
2018-03-20T08:08:07.810Z,34176.0
2018-03-20T08:18:33.584Z,36000.0
2018-03-20T08:28:47.747Z,45152.0
2018-03-20T08:39:02.040Z,50080.0
2018-03-20T08:49:13.200Z,55328.0
2018-03-20T08:59:24.401Z,59296.0
2018-03-20T09:09:41.626Z,56608.0
2018-03-20T09:19:56.424Z,63712.0
2018-03-20T09:31:01.802Z,71168.0
2018-03-20T09:41:23.240Z,69152.0
2018-03-20T09:54:15.039Z,65824.0
2018-03-20T10:06:56.326Z,70720.0
2018-03-20T10:17:10.278Z,75264.0
2018-03-20T10:27:24.485Z,79680.0
2018-03-20T10:37:38.463Z,79456.0
2018-03-20T10:48:23.206Z,81632.0
2018-03-20T10:58:57.413Z,83712.0
2018-03-20T11:09:26.547Z,82272.0
2018-03-20T11:20:10.119Z,81920.0
2018-03-20T11:30:41.463Z,80160.0
2018-03-20T11:41:46.352Z,83552.0
2018-03-20T11:54:08.646Z,82464.0
2018-03-20T12:05:58.014Z,78304.0
2018-03-20T12:18:23.951Z,81280.0
2018-03-20T12:41:59.390Z,80416.0
2018-03-20T12:52:47.473Z,76672.0
2018-03-20T13:03:03.194Z,76320.0
2018-03-20T13:15:15.842Z,78464.0
2018-03-20T13:38:59.377Z,69312.0
2018-03-20T13:49:25.580Z,64512.0
2018-03-20T13:59:47.623Z,62176.0
2018-03-20T14:10:02.044Z,47584.0
2018-03-20T14:20:14.020Z,36256.0
2018-03-20T14:30:28.111Z,14400.0
2018-03-20T14:40:46.641Z,15808.0
2018-03-20T14:51:02.535Z,13952.0
2018-03-20T15:01:19.157Z,13792.0
2018-03-20T15:12:26.912Z,14080.0
2018-03-20T15:22:40.100Z,13952.0
2018-03-20T16:23:34.340Z,3168.0
2018-03-20T17:06:52.833Z,1368.0
2018-03-20T17:17:03.946Z,1004.0
2018-03-20T17:27:23.619Z,648.0
2018-03-20T17:37:35.844Z,312.0
2018-03-20T17:48:02.341Z,116.0
2018-03-20T17:58:27.775Z,28.0
2018-03-20T18:09:17.154Z,4.0
2018-03-20T18:19:30.945Z,0.0
2018-03-20T18:29:42.451Z,0.0
2018-03-20T18:40:27.832Z,0.0
2018-03-20T18:50:43.519Z,0.0
2018-03-20T19:00:57.626Z,0.0
2018-03-20T19:54:13.046Z,0.0
2018-03-20T20:05:05.288Z,0.0
2018-03-20T20:59:24.164Z,0.0
2018-03-20T21:09:36.569Z,0.0
2018-03-20T21:20:25.065Z,0.0
2018-03-20T21:30:37.343Z,0.0
2018-03-20T21:40:50.807Z,0.0
2018-03-20T21:51:05.192Z,0.0
2018-03-20T22:01:19.788Z,0.0
2018-03-20T22:11:32.464Z,0.0
2018-03-20T22:21:46.639Z,0.0
2018-03-20T22:32:03.498Z,0.0
2018-03-20T22:42:15.483Z,0.0
2018-03-20T22:52:31.493Z,0.0
2018-03-20T23:03:17.130Z,0.0
2018-03-20T23:13:30.661Z,0.0
2018-03-20T23:23:44.517Z,0.0
2018-03-20T23:33:55.967Z,0.0
2018-03-20T23:44:40.500Z,0.0
2018-03-20T23:54:54.340Z,0.0
